sensor_id;sensor_type;location;lat;lon;timestamp;pressure;altitude;pressure_sealevel;temperature;humidity
41040;BME280;48586;50.122;18.972;2022-12-18T00:00:24;100060.94;;;-4.50;63.71
41040;BME280;48586;50.122;18.972;2022-12-18T00:02:31;100065.13;;;-4.62;63.21
41040;BME280;48586;50.122;18.972;2022-12-18T00:04:35;100072.59;;;-4.70;64.03
41040;BME280;48586;50.122;18.972;2022-12-18T00:06:40;100066.47;;;-4.69;64.37
41040;BME280;48586;50.122;18.972;2022-12-18T00:08:44;100083.25;;;-4.61;64.79
41040;BME280;48586;50.122;18.972;2022-12-18T00:10:49;100078.13;;;-4.62;64.12
41040;BME280;48586;50.122;18.972;2022-12-18T00:12:54;100073.59;;;-4.59;64.43
41040;BME280;48586;50.122;18.972;2022-12-18T00:14:58;100075.59;;;-4.49;64.40
41040;BME280;48586;50.122;18.972;2022-12-18T00:17:02;100080.97;;;-4.38;64.76
41040;BME280;48586;50.122;18.972;2022-12-18T00:19:09;100086.31;;;-4.27;64.31
41040;BME280;48586;50.122;18.972;2022-12-18T00:21:15;100079.88;;;-4.21;63.80
41040;BME280;48586;50.122;18.972;2022-12-18T00:23:19;100087.59;;;-4.20;63.54
41040;BME280;48586;50.122;18.972;2022-12-18T00:25:24;100088.34;;;-4.18;63.18
41040;BME280;48586;50.122;18.972;2022-12-18T00:27:28;100088.53;;;-4.21;62.69
41040;BME280;48586;50.122;18.972;2022-12-18T00:29:32;100087.06;;;-4.25;62.85
41040;BME280;48586;50.122;18.972;2022-12-18T00:31:37;100093.38;;;-4.29;62.81
41040;BME280;48586;50.122;18.972;2022-12-18T00:33:42;100093.69;;;-4.34;62.90
41040;BME280;48586;50.122;18.972;2022-12-18T00:35:49;100091.06;;;-4.34;63.27
41040;BME280;48586;50.122;18.972;2022-12-18T00:37:54;100100.94;;;-4.39;63.13
41040;BME280;48586;50.122;18.972;2022-12-18T00:39:58;100113.41;;;-4.44;63.14
41040;BME280;48586;50.122;18.972;2022-12-18T00:42:03;100110.47;;;-4.52;62.89
41040;BME280;48586;50.122;18.972;2022-12-18T00:44:20;100114.38;;;-4.59;63.24
41040;BME280;48586;50.122;18.972;2022-12-18T00:46:25;100118.91;;;-4.63;63.14
41040;BME280;48586;50.122;18.972;2022-12-18T00:48:29;100125.78;;;-4.62;63.39
41040;BME280;48586;50.122;18.972;2022-12-18T00:50:34;100115.72;;;-4.53;64.54
41040;BME280;48586;50.122;18.972;2022-12-18T00:52:41;100118.81;;;-4.47;64.22
41040;BME280;48586;50.122;18.972;2022-12-18T00:54:46;100130.75;;;-4.44;63.12
41040;BME280;48586;50.122;18.972;2022-12-18T00:56:50;100128.56;;;-4.50;63.31
41040;BME280;48586;50.122;18.972;2022-12-18T00:58:55;100129.50;;;-4.51;63.27
41040;BME280;48586;50.122;18.972;2022-12-18T01:00:59;100130.22;;;-4.49;63.61
41040;BME280;48586;50.122;18.972;2022-12-18T01:03:05;100137.72;;;-4.45;63.53
41040;BME280;48586;50.122;18.972;2022-12-18T01:05:11;100136.72;;;-4.42;63.10
41040;BME280;48586;50.122;18.972;2022-12-18T01:07:16;100138.50;;;-4.43;63.14
41040;BME280;48586;50.122;18.972;2022-12-18T01:09:24;100139.03;;;-4.38;63.27
41040;BME280;48586;50.122;18.972;2022-12-18T01:11:28;100148.41;;;-4.35;63.17
41040;BME280;48586;50.122;18.972;2022-12-18T01:13:32;100142.34;;;-4.36;62.62
41040;BME280;48586;50.122;18.972;2022-12-18T01:15:36;100154.63;;;-4.38;62.68
41040;BME280;48586;50.122;18.972;2022-12-18T01:17:41;100146.28;;;-4.43;62.38
41040;BME280;48586;50.122;18.972;2022-12-18T01:19:46;100151.84;;;-4.49;62.49
41040;BME280;48586;50.122;18.972;2022-12-18T01:21:50;100146.75;;;-4.50;62.97
41040;BME280;48586;50.122;18.972;2022-12-18T01:23:56;100152.06;;;-4.52;63.12
41040;BME280;48586;50.122;18.972;2022-12-18T01:26:08;100144.63;;;-4.58;63.01
41040;BME280;48586;50.122;18.972;2022-12-18T01:28:14;100153.09;;;-4.54;63.65
41040;BME280;48586;50.122;18.972;2022-12-18T01:30:18;100148.72;;;-4.54;63.31
41040;BME280;48586;50.122;18.972;2022-12-18T01:32:22;100148.91;;;-4.57;62.54
41040;BME280;48586;50.122;18.972;2022-12-18T01:34:27;100136.84;;;-4.58;62.72
41040;BME280;48586;50.122;18.972;2022-12-18T01:36:33;100147.06;;;-4.55;62.70
41040;BME280;48586;50.122;18.972;2022-12-18T01:38:39;100155.56;;;-4.53;63.08
41040;BME280;48586;50.122;18.972;2022-12-18T01:40:44;100154.56;;;-4.50;62.97
41040;BME280;48586;50.122;18.972;2022-12-18T01:42:52;100153.25;;;-4.43;63.24
41040;BME280;48586;50.122;18.972;2022-12-18T01:45:05;100153.91;;;-4.40;62.90
41040;BME280;48586;50.122;18.972;2022-12-18T01:47:30;100166.81;;;-4.38;62.40
41040;BME280;48586;50.122;18.972;2022-12-18T01:49:38;100160.50;;;-4.34;62.52
41040;BME280;48586;50.122;18.972;2022-12-18T01:51:42;100167.25;;;-4.32;62.42
41040;BME280;48586;50.122;18.972;2022-12-18T01:53:49;100167.16;;;-4.30;62.16
41040;BME280;48586;50.122;18.972;2022-12-18T01:55:56;100168.94;;;-4.30;62.10
41040;BME280;48586;50.122;18.972;2022-12-18T01:58:04;100172.66;;;-4.35;61.74
41040;BME280;48586;50.122;18.972;2022-12-18T02:00:13;100165.88;;;-4.37;62.22
41040;BME280;48586;50.122;18.972;2022-12-18T02:02:20;100179.72;;;-4.37;61.93
41040;BME280;48586;50.122;18.972;2022-12-18T02:04:27;100180.84;;;-4.41;61.95
41040;BME280;48586;50.122;18.972;2022-12-18T02:06:39;100187.38;;;-4.48;61.22
41040;BME280;48586;50.122;18.972;2022-12-18T02:08:54;100185.78;;;-4.50;62.12
41040;BME280;48586;50.122;18.972;2022-12-18T02:11:13;100190.97;;;-4.50;62.22
41040;BME280;48586;50.122;18.972;2022-12-18T02:13:36;100196.19;;;-4.50;63.06
41040;BME280;48586;50.122;18.972;2022-12-18T02:15:57;100194.41;;;-4.50;62.60
41040;BME280;48586;50.122;18.972;2022-12-18T02:18:13;100191.81;;;-4.50;62.68
41040;BME280;48586;50.122;18.972;2022-12-18T02:20:31;100195.34;;;-4.51;62.56
41040;BME280;48586;50.122;18.972;2022-12-18T02:22:50;100199.53;;;-4.48;62.66
41040;BME280;48586;50.122;18.972;2022-12-18T02:25:20;100198.50;;;-4.46;62.56
41040;BME280;48586;50.122;18.972;2022-12-18T02:27:45;100206.19;;;-4.44;62.70
41040;BME280;48586;50.122;18.972;2022-12-18T02:29:58;100201.47;;;-4.38;62.71
41040;BME280;48586;50.122;18.972;2022-12-18T02:32:09;100207.50;;;-4.37;62.58
41040;BME280;48586;50.122;18.972;2022-12-18T02:34:21;100210.38;;;-4.42;62.40
41040;BME280;48586;50.122;18.972;2022-12-18T02:36:32;100217.91;;;-4.51;62.38
41040;BME280;48586;50.122;18.972;2022-12-18T02:38:42;100209.66;;;-4.58;62.51
41040;BME280;48586;50.122;18.972;2022-12-18T02:40:53;100216.78;;;-4.62;62.77
41040;BME280;48586;50.122;18.972;2022-12-18T02:43:07;100202.22;;;-4.64;63.19
41040;BME280;48586;50.122;18.972;2022-12-18T02:45:12;100204.00;;;-4.65;63.54
41040;BME280;48586;50.122;18.972;2022-12-18T02:47:21;100217.66;;;-4.61;63.99
41040;BME280;48586;50.122;18.972;2022-12-18T02:49:36;100227.13;;;-4.60;63.59
41040;BME280;48586;50.122;18.972;2022-12-18T02:51:56;100235.47;;;-4.55;63.90
41040;BME280;48586;50.122;18.972;2022-12-18T02:54:19;100238.34;;;-4.60;63.18
41040;BME280;48586;50.122;18.972;2022-12-18T02:56:37;100239.56;;;-4.65;63.72
41040;BME280;48586;50.122;18.972;2022-12-18T02:58:58;100240.19;;;-4.62;64.10
41040;BME280;48586;50.122;18.972;2022-12-18T03:01:19;100239.84;;;-4.55;64.29
41040;BME280;48586;50.122;18.972;2022-12-18T03:03:34;100251.19;;;-4.57;63.69
41040;BME280;48586;50.122;18.972;2022-12-18T03:05:50;100253.56;;;-4.53;63.73
41040;BME280;48586;50.122;18.972;2022-12-18T03:08:06;100244.22;;;-4.56;64.19
41040;BME280;48586;50.122;18.972;2022-12-18T03:10:21;100251.34;;;-4.60;63.81
41040;BME280;48586;50.122;18.972;2022-12-18T03:12:38;100253.13;;;-4.60;64.07
41040;BME280;48586;50.122;18.972;2022-12-18T03:14:53;100247.63;;;-4.55;64.63
41040;BME280;48586;50.122;18.972;2022-12-18T03:17:11;100252.56;;;-4.51;64.78
41040;BME280;48586;50.122;18.972;2022-12-18T03:19:25;100250.34;;;-4.43;64.50
41040;BME280;48586;50.122;18.972;2022-12-18T03:21:41;100253.31;;;-4.35;64.15
41040;BME280;48586;50.122;18.972;2022-12-18T03:23:52;100251.25;;;-4.29;63.80
41040;BME280;48586;50.122;18.972;2022-12-18T03:26:05;100241.56;;;-4.27;63.73
41040;BME280;48586;50.122;18.972;2022-12-18T03:28:21;100247.91;;;-4.32;63.03
41040;BME280;48586;50.122;18.972;2022-12-18T03:30:39;100249.13;;;-4.37;62.82
41040;BME280;48586;50.122;18.972;2022-12-18T03:32:50;100249.69;;;-4.46;63.35
41040;BME280;48586;50.122;18.972;2022-12-18T03:35:04;100258.97;;;-4.42;64.04
41040;BME280;48586;50.122;18.972;2022-12-18T03:37:12;100258.88;;;-4.41;63.84
41040;BME280;48586;50.122;18.972;2022-12-18T03:39:16;100262.22;;;-4.39;63.37
41040;BME280;48586;50.122;18.972;2022-12-18T03:41:33;100258.13;;;-4.43;63.18
41040;BME280;48586;50.122;18.972;2022-12-18T03:44:11;100270.97;;;-4.40;63.78
41040;BME280;48586;50.122;18.972;2022-12-18T03:46:28;100275.03;;;-4.36;63.51
41040;BME280;48586;50.122;18.972;2022-12-18T03:48:46;100267.88;;;-4.32;63.79
41040;BME280;48586;50.122;18.972;2022-12-18T03:51:02;100266.38;;;-4.36;62.91
41040;BME280;48586;50.122;18.972;2022-12-18T03:53:25;100275.41;;;-4.42;63.58
41040;BME280;48586;50.122;18.972;2022-12-18T03:55:38;100273.66;;;-4.41;63.32
41040;BME280;48586;50.122;18.972;2022-12-18T03:57:45;100278.00;;;-4.42;63.47
41040;BME280;48586;50.122;18.972;2022-12-18T03:59:56;100281.38;;;-4.40;63.32
41040;BME280;48586;50.122;18.972;2022-12-18T04:02:18;100287.31;;;-4.38;63.58
41040;BME280;48586;50.122;18.972;2022-12-18T04:04:28;100281.16;;;-4.37;63.67
41040;BME280;48586;50.122;18.972;2022-12-18T04:06:38;100273.75;;;-4.43;63.34
41040;BME280;48586;50.122;18.972;2022-12-18T04:08:48;100284.88;;;-4.41;63.39
41040;BME280;48586;50.122;18.972;2022-12-18T04:10:56;100291.47;;;-4.49;63.04
41040;BME280;48586;50.122;18.972;2022-12-18T04:13:01;100289.44;;;-4.59;63.36
41040;BME280;48586;50.122;18.972;2022-12-18T04:15:07;100297.59;;;-4.65;63.57
41040;BME280;48586;50.122;18.972;2022-12-18T04:17:13;100299.94;;;-4.60;64.17
41040;BME280;48586;50.122;18.972;2022-12-18T04:19:20;100302.91;;;-4.52;63.83
41040;BME280;48586;50.122;18.972;2022-12-18T04:21:26;100305.31;;;-4.49;63.83
41040;BME280;48586;50.122;18.972;2022-12-18T04:23:30;100299.94;;;-4.46;63.92
41040;BME280;48586;50.122;18.972;2022-12-18T04:25:36;100302.44;;;-4.44;63.73
41040;BME280;48586;50.122;18.972;2022-12-18T04:27:44;100300.88;;;-4.47;63.53
41040;BME280;48586;50.122;18.972;2022-12-18T04:29:48;100311.94;;;-4.43;64.05
41040;BME280;48586;50.122;18.972;2022-12-18T04:31:53;100315.25;;;-4.41;63.24
41040;BME280;48586;50.122;18.972;2022-12-18T04:34:02;100314.25;;;-4.39;63.37
41040;BME280;48586;50.122;18.972;2022-12-18T04:36:15;100322.06;;;-4.39;62.89
41040;BME280;48586;50.122;18.972;2022-12-18T04:38:20;100317.59;;;-4.37;63.59
41040;BME280;48586;50.122;18.972;2022-12-18T04:40:32;100319.06;;;-4.33;63.21
41040;BME280;48586;50.122;18.972;2022-12-18T04:42:46;100330.41;;;-4.34;63.05
41040;BME280;48586;50.122;18.972;2022-12-18T04:44:50;100324.28;;;-4.33;63.66
41040;BME280;48586;50.122;18.972;2022-12-18T04:46:54;100331.63;;;-4.25;63.86
41040;BME280;48586;50.122;18.972;2022-12-18T04:48:58;100332.84;;;-4.16;64.19
41040;BME280;48586;50.122;18.972;2022-12-18T04:51:03;100333.22;;;-4.08;63.69
41040;BME280;48586;50.122;18.972;2022-12-18T04:53:11;100337.47;;;-4.07;62.94
41040;BME280;48586;50.122;18.972;2022-12-18T04:55:15;100344.28;;;-4.04;62.56
41040;BME280;48586;50.122;18.972;2022-12-18T04:57:19;100347.25;;;-4.11;61.90
41040;BME280;48586;50.122;18.972;2022-12-18T04:59:24;100348.47;;;-4.16;62.54
41040;BME280;48586;50.122;18.972;2022-12-18T05:01:28;100347.97;;;-4.23;62.41
41040;BME280;48586;50.122;18.972;2022-12-18T05:03:35;100345.47;;;-4.24;62.43
41040;BME280;48586;50.122;18.972;2022-12-18T05:05:41;100354.13;;;-4.24;63.21
41040;BME280;48586;50.122;18.972;2022-12-18T05:07:45;100362.03;;;-4.25;62.52
41040;BME280;48586;50.122;18.972;2022-12-18T05:09:51;100363.25;;;-4.31;62.24
41040;BME280;48586;50.122;18.972;2022-12-18T05:11:56;100359.22;;;-4.37;62.53
41040;BME280;48586;50.122;18.972;2022-12-18T05:14:00;100363.03;;;-4.42;62.95
41040;BME280;48586;50.122;18.972;2022-12-18T05:16:05;100370.16;;;-4.46;63.11
41040;BME280;48586;50.122;18.972;2022-12-18T05:18:11;100367.84;;;-4.50;63.02
41040;BME280;48586;50.122;18.972;2022-12-18T05:20:15;100371.19;;;-4.48;62.86
41040;BME280;48586;50.122;18.972;2022-12-18T05:22:19;100369.59;;;-4.51;62.89
41040;BME280;48586;50.122;18.972;2022-12-18T05:24:24;100370.53;;;-4.52;63.77
41040;BME280;48586;50.122;18.972;2022-12-18T05:26:31;100367.56;;;-4.46;63.65
41040;BME280;48586;50.122;18.972;2022-12-18T05:28:36;100370.16;;;-4.46;63.19
41040;BME280;48586;50.122;18.972;2022-12-18T05:30:41;100366.16;;;-4.51;62.67
41040;BME280;48586;50.122;18.972;2022-12-18T05:32:47;100370.03;;;-4.59;62.96
41040;BME280;48586;50.122;18.972;2022-12-18T05:34:51;100365.00;;;-4.62;63.14
41040;BME280;48586;50.122;18.972;2022-12-18T05:36:56;100372.81;;;-4.62;63.06
41040;BME280;48586;50.122;18.972;2022-12-18T05:39:00;100370.22;;;-4.62;63.30
41040;BME280;48586;50.122;18.972;2022-12-18T05:41:05;100380.34;;;-4.57;63.91
41040;BME280;48586;50.122;18.972;2022-12-18T05:43:13;100376.75;;;-4.54;62.93
41040;BME280;48586;50.122;18.972;2022-12-18T05:45:17;100380.44;;;-4.59;62.53
41040;BME280;48586;50.122;18.972;2022-12-18T05:47:21;100375.34;;;-4.60;63.36
41040;BME280;48586;50.122;18.972;2022-12-18T05:49:26;100379.63;;;-4.59;62.87
41040;BME280;48586;50.122;18.972;2022-12-18T05:51:30;100390.19;;;-4.62;62.69
41040;BME280;48586;50.122;18.972;2022-12-18T05:53:36;100386.19;;;-4.68;62.83
41040;BME280;48586;50.122;18.972;2022-12-18T05:55:43;100394.91;;;-4.69;62.93
41040;BME280;48586;50.122;18.972;2022-12-18T05:57:47;100394.09;;;-4.69;63.27
41040;BME280;48586;50.122;18.972;2022-12-18T05:59:54;100388.50;;;-4.63;63.40
41040;BME280;48586;50.122;18.972;2022-12-18T06:01:59;100391.41;;;-4.53;63.79
41040;BME280;48586;50.122;18.972;2022-12-18T06:04:03;100393.31;;;-4.41;64.06
41040;BME280;48586;50.122;18.972;2022-12-18T06:06:15;100397.97;;;-4.32;63.56
41040;BME280;48586;50.122;18.972;2022-12-18T06:08:20;100399.13;;;-4.22;63.27
41040;BME280;48586;50.122;18.972;2022-12-18T06:10:24;100398.72;;;-4.16;62.49
41040;BME280;48586;50.122;18.972;2022-12-18T06:12:28;100403.66;;;-4.11;62.48
41040;BME280;48586;50.122;18.972;2022-12-18T06:14:35;100395.69;;;-4.08;62.45
41040;BME280;48586;50.122;18.972;2022-12-18T06:16:42;100405.91;;;-4.05;62.27
41040;BME280;48586;50.122;18.972;2022-12-18T06:18:46;100403.09;;;-4.02;62.73
41040;BME280;48586;50.122;18.972;2022-12-18T06:20:55;100402.84;;;-3.97;62.39
41040;BME280;48586;50.122;18.972;2022-12-18T06:22:59;100407.13;;;-3.96;61.54
41040;BME280;48586;50.122;18.972;2022-12-18T06:25:04;100415.94;;;-3.99;62.03
41040;BME280;48586;50.122;18.972;2022-12-18T06:27:10;100409.25;;;-4.03;61.42
41040;BME280;48586;50.122;18.972;2022-12-18T06:29:14;100418.72;;;-4.02;61.61
41040;BME280;48586;50.122;18.972;2022-12-18T06:31:19;100427.47;;;-4.03;60.96
41040;BME280;48586;50.122;18.972;2022-12-18T06:33:27;100424.22;;;-4.07;61.66
41040;BME280;48586;50.122;18.972;2022-12-18T06:35:31;100421.72;;;-4.08;61.58
41040;BME280;48586;50.122;18.972;2022-12-18T06:37:35;100422.91;;;-4.14;61.45
41040;BME280;48586;50.122;18.972;2022-12-18T06:39:40;100431.91;;;-4.19;61.48
41040;BME280;48586;50.122;18.972;2022-12-18T06:41:44;100431.72;;;-4.16;61.90
41040;BME280;48586;50.122;18.972;2022-12-18T06:43:48;100437.78;;;-4.16;61.44
41040;BME280;48586;50.122;18.972;2022-12-18T06:46:00;100438.72;;;-4.17;61.31
41040;BME280;48586;50.122;18.972;2022-12-18T06:48:05;100447.72;;;-4.22;61.35
41040;BME280;48586;50.122;18.972;2022-12-18T06:50:12;100442.69;;;-4.25;61.66
41040;BME280;48586;50.122;18.972;2022-12-18T06:52:17;100444.34;;;-4.24;61.59
41040;BME280;48586;50.122;18.972;2022-12-18T06:54:21;100450.31;;;-4.22;61.74
41040;BME280;48586;50.122;18.972;2022-12-18T06:56:26;100449.94;;;-4.16;61.88
41040;BME280;48586;50.122;18.972;2022-12-18T06:58:32;100459.09;;;-4.09;61.79
41040;BME280;48586;50.122;18.972;2022-12-18T07:00:36;100463.19;;;-4.05;61.30
41040;BME280;48586;50.122;18.972;2022-12-18T07:02:41;100464.84;;;-4.04;61.26
41040;BME280;48586;50.122;18.972;2022-12-18T07:04:53;100463.34;;;-4.08;61.22
41040;BME280;48586;50.122;18.972;2022-12-18T07:07:00;100471.59;;;-4.16;61.13
41040;BME280;48586;50.122;18.972;2022-12-18T07:09:05;100472.81;;;-4.21;61.13
41040;BME280;48586;50.122;18.972;2022-12-18T07:11:10;100474.66;;;-4.23;60.96
41040;BME280;48586;50.122;18.972;2022-12-18T07:13:15;100476.69;;;-4.28;61.15
41040;BME280;48586;50.122;18.972;2022-12-18T07:15:20;100475.44;;;-4.37;61.39
41040;BME280;48586;50.122;18.972;2022-12-18T07:17:24;100479.41;;;-4.46;61.64
41040;BME280;48586;50.122;18.972;2022-12-18T07:19:29;100475.31;;;-4.50;61.82
41040;BME280;48586;50.122;18.972;2022-12-18T07:21:34;100488.31;;;-4.50;62.11
41040;BME280;48586;50.122;18.972;2022-12-18T07:23:42;100495.53;;;-4.55;61.79
41040;BME280;48586;50.122;18.972;2022-12-18T07:25:48;100495.66;;;-4.57;62.10
41040;BME280;48586;50.122;18.972;2022-12-18T07:27:52;100502.69;;;-4.59;62.25
41040;BME280;48586;50.122;18.972;2022-12-18T07:29:57;100498.50;;;-4.61;62.39
41040;BME280;48586;50.122;18.972;2022-12-18T07:32:01;100499.25;;;-4.59;62.15
41040;BME280;48586;50.122;18.972;2022-12-18T07:34:05;100505.03;;;-4.54;62.37
41040;BME280;48586;50.122;18.972;2022-12-18T07:36:14;100506.34;;;-4.47;62.39
41040;BME280;48586;50.122;18.972;2022-12-18T07:38:19;100504.31;;;-4.42;62.15
41040;BME280;48586;50.122;18.972;2022-12-18T07:40:25;100502.03;;;-4.32;62.17
41040;BME280;48586;50.122;18.972;2022-12-18T07:42:30;100509.25;;;-4.21;62.14
41040;BME280;48586;50.122;18.972;2022-12-18T07:44:35;100500.13;;;-4.14;62.02
41040;BME280;48586;50.122;18.972;2022-12-18T07:46:39;100505.84;;;-4.08;61.62
41040;BME280;48586;50.122;18.972;2022-12-18T07:48:45;100509.84;;;-4.02;61.31
41040;BME280;48586;50.122;18.972;2022-12-18T07:50:49;100502.59;;;-3.97;61.48
41040;BME280;48586;50.122;18.972;2022-12-18T07:52:53;100500.56;;;-3.92;61.28
41040;BME280;48586;50.122;18.972;2022-12-18T07:54:59;100507.19;;;-3.86;61.20
41040;BME280;48586;50.122;18.972;2022-12-18T07:57:05;100509.59;;;-3.83;61.17
41040;BME280;48586;50.122;18.972;2022-12-18T07:59:10;100508.41;;;-3.77;60.95
41040;BME280;48586;50.122;18.972;2022-12-18T08:01:15;100501.97;;;-3.72;60.71
41040;BME280;48586;50.122;18.972;2022-12-18T08:03:19;100508.78;;;-3.69;60.03
41040;BME280;48586;50.122;18.972;2022-12-18T08:05:25;100503.47;;;-3.68;60.04
41040;BME280;48586;50.122;18.972;2022-12-18T08:07:30;100498.91;;;-3.64;60.35
41040;BME280;48586;50.122;18.972;2022-12-18T08:09:34;100505.63;;;-3.60;59.78
41040;BME280;48586;50.122;18.972;2022-12-18T08:11:38;100496.69;;;-3.56;59.91
41040;BME280;48586;50.122;18.972;2022-12-18T08:13:45;100500.41;;;-3.46;60.57
41040;BME280;48586;50.122;18.972;2022-12-18T08:15:56;100499.78;;;-3.35;60.37
41040;BME280;48586;50.122;18.972;2022-12-18T08:18:00;100507.75;;;-3.24;59.96
41040;BME280;48586;50.122;18.972;2022-12-18T08:20:06;100513.31;;;-3.16;59.20
41040;BME280;48586;50.122;18.972;2022-12-18T08:22:12;100513.88;;;-3.11;58.93
41040;BME280;48586;50.122;18.972;2022-12-18T08:24:16;100514.25;;;-3.02;58.97
41040;BME280;48586;50.122;18.972;2022-12-18T08:26:23;100520.75;;;-2.95;59.01
41040;BME280;48586;50.122;18.972;2022-12-18T08:28:30;100521.41;;;-2.92;58.03
41040;BME280;48586;50.122;18.972;2022-12-18T08:30:38;100524.66;;;-2.88;58.95
41040;BME280;48586;50.122;18.972;2022-12-18T08:32:49;100526.78;;;-2.81;58.67
41040;BME280;48586;50.122;18.972;2022-12-18T08:34:55;100535.16;;;-2.75;58.18
41040;BME280;48586;50.122;18.972;2022-12-18T08:37:00;100534.13;;;-2.73;57.58
41040;BME280;48586;50.122;18.972;2022-12-18T08:39:06;100533.94;;;-2.70;58.19
41040;BME280;48586;50.122;18.972;2022-12-18T08:41:13;100535.59;;;-2.69;57.43
41040;BME280;48586;50.122;18.972;2022-12-18T08:43:20;100540.53;;;-2.64;58.58
41040;BME280;48586;50.122;18.972;2022-12-18T08:45:40;100541.91;;;-2.59;57.66
41040;BME280;48586;50.122;18.972;2022-12-18T08:47:44;100544.44;;;-2.57;57.06
41040;BME280;48586;50.122;18.972;2022-12-18T08:49:49;100545.06;;;-2.53;57.96
41040;BME280;48586;50.122;18.972;2022-12-18T08:51:56;100548.28;;;-2.50;56.88
41040;BME280;48586;50.122;18.972;2022-12-18T08:54:02;100548.88;;;-2.45;58.52
41040;BME280;48586;50.122;18.972;2022-12-18T08:56:07;100557.22;;;-2.40;57.19
41040;BME280;48586;50.122;18.972;2022-12-18T08:58:13;100562.03;;;-2.34;56.88
41040;BME280;48586;50.122;18.972;2022-12-18T09:00:17;100563.00;;;-2.35;57.53
41040;BME280;48586;50.122;18.972;2022-12-18T09:02:25;100565.19;;;-2.28;57.35
41040;BME280;48586;50.122;18.972;2022-12-18T09:04:31;100564.81;;;-2.22;56.38
41040;BME280;48586;50.122;18.972;2022-12-18T09:06:36;100551.75;;;-2.22;55.84
41040;BME280;48586;50.122;18.972;2022-12-18T09:08:41;100563.88;;;-2.21;55.83
41040;BME280;48586;50.122;18.972;2022-12-18T09:10:48;100567.31;;;-2.21;55.07
41040;BME280;48586;50.122;18.972;2022-12-18T09:12:53;100566.59;;;-2.23;55.53
41040;BME280;48586;50.122;18.972;2022-12-18T09:14:58;100574.19;;;-2.20;56.09
41040;BME280;48586;50.122;18.972;2022-12-18T09:17:04;100582.97;;;-2.21;56.08
41040;BME280;48586;50.122;18.972;2022-12-18T09:19:11;100574.84;;;-2.16;56.04
41040;BME280;48586;50.122;18.972;2022-12-18T09:21:19;100579.88;;;-2.13;55.22
41040;BME280;48586;50.122;18.972;2022-12-18T09:23:25;100574.66;;;-2.13;55.28
41040;BME280;48586;50.122;18.972;2022-12-18T09:25:30;100578.09;;;-2.13;55.05
41040;BME280;48586;50.122;18.972;2022-12-18T09:27:36;100574.47;;;-2.10;55.44
41040;BME280;48586;50.122;18.972;2022-12-18T09:29:42;100573.31;;;-2.06;55.55
41040;BME280;48586;50.122;18.972;2022-12-18T09:31:46;100571.25;;;-2.01;55.50
41040;BME280;48586;50.122;18.972;2022-12-18T09:33:51;100573.25;;;-1.92;55.58
41040;BME280;48586;50.122;18.972;2022-12-18T09:36:01;100573.06;;;-1.89;53.92
41040;BME280;48586;50.122;18.972;2022-12-18T09:38:09;100577.53;;;-1.91;54.52
41040;BME280;48586;50.122;18.972;2022-12-18T09:40:19;100574.84;;;-1.89;54.50
41040;BME280;48586;50.122;18.972;2022-12-18T09:42:26;100580.78;;;-1.87;54.01
41040;BME280;48586;50.122;18.972;2022-12-18T09:44:39;100588.50;;;-1.86;53.62
41040;BME280;48586;50.122;18.972;2022-12-18T09:46:54;100582.97;;;-1.81;54.68
41040;BME280;48586;50.122;18.972;2022-12-18T09:49:14;100575.28;;;-1.70;55.21
41040;BME280;48586;50.122;18.972;2022-12-18T09:51:29;100576.00;;;-1.55;54.59
41040;BME280;48586;50.122;18.972;2022-12-18T09:53:43;100576.88;;;-1.42;55.35
41040;BME280;48586;50.122;18.972;2022-12-18T09:55:52;100580.84;;;-1.23;55.56
41040;BME280;48586;50.122;18.972;2022-12-18T09:58:05;100575.28;;;-1.06;55.78
41040;BME280;48586;50.122;18.972;2022-12-18T10:00:20;100570.34;;;-0.85;54.70
41040;BME280;48586;50.122;18.972;2022-12-18T10:02:31;100573.44;;;-0.67;54.96
41040;BME280;48586;50.122;18.972;2022-12-18T10:04:35;100576.31;;;-0.46;54.61
41040;BME280;48586;50.122;18.972;2022-12-18T10:06:49;100571.50;;;-0.29;53.34
41040;BME280;48586;50.122;18.972;2022-12-18T10:09:07;100560.97;;;-0.16;53.03
41040;BME280;48586;50.122;18.972;2022-12-18T10:11:37;100556.84;;;-0.07;52.27
41040;BME280;48586;50.122;18.972;2022-12-18T10:13:59;100557.06;;;-0.10;51.98
41040;BME280;48586;50.122;18.972;2022-12-18T10:16:17;100550.03;;;-0.10;51.74
41040;BME280;48586;50.122;18.972;2022-12-18T10:18:43;100563.47;;;-0.14;52.41
41040;BME280;48586;50.122;18.972;2022-12-18T10:21:11;100558.78;;;-0.22;51.91
41040;BME280;48586;50.122;18.972;2022-12-18T10:23:32;100562.81;;;-0.29;52.51
41040;BME280;48586;50.122;18.972;2022-12-18T10:25:53;100563.25;;;-0.35;51.52
41040;BME280;48586;50.122;18.972;2022-12-18T10:28:10;100557.19;;;-0.36;52.33
41040;BME280;48586;50.122;18.972;2022-12-18T10:30:23;100551.75;;;-0.33;52.14
41040;BME280;48586;50.122;18.972;2022-12-18T10:32:30;100550.56;;;-0.29;51.83
41040;BME280;48586;50.122;18.972;2022-12-18T10:34:34;100545.09;;;-0.25;52.22
41040;BME280;48586;50.122;18.972;2022-12-18T10:36:40;100534.88;;;-0.17;52.31
41040;BME280;48586;50.122;18.972;2022-12-18T10:38:48;100534.09;;;-0.07;52.83
41040;BME280;48586;50.122;18.972;2022-12-18T10:40:56;100538.53;;;0.04;53.51
41040;BME280;48586;50.122;18.972;2022-12-18T10:43:09;100544.09;;;0.24;54.14
41040;BME280;48586;50.122;18.972;2022-12-18T10:45:17;100539.09;;;0.43;54.21
41040;BME280;48586;50.122;18.972;2022-12-18T10:47:22;100528.63;;;0.65;53.42
41040;BME280;48586;50.122;18.972;2022-12-18T10:49:30;100528.88;;;0.85;53.19
41040;BME280;48586;50.122;18.972;2022-12-18T10:51:38;100523.28;;;1.01;51.88
41040;BME280;48586;50.122;18.972;2022-12-18T10:53:44;100526.69;;;1.12;51.62
41040;BME280;48586;50.122;18.972;2022-12-18T10:56:05;100523.84;;;1.15;50.40
41040;BME280;48586;50.122;18.972;2022-12-18T10:58:22;100525.28;;;1.19;51.47
41040;BME280;48586;50.122;18.972;2022-12-18T11:00:31;100522.63;;;1.31;52.61
41040;BME280;48586;50.122;18.972;2022-12-18T11:02:38;100525.66;;;1.47;52.02